Nearby METAR Reports

 

KBJC - Broomfield/Jeffc, Colorado, USA
Distance from station: NNW 11mi, 17km
Updated: 06/27/2017 9:13am
Clear
Clear
 Wind from E
Wind: E 6 mph , 9 km/h
Temperature: 70°F , 21°C
Dew Point: 54°F , 12°C
Humidity: 57%
Barometer: 29.99 inHg , 1015.6 hPa
Clouds: Clear
Visibility: 10 miles , 16 km
2017/06/27 15:13 KBJC 271513Z AUTO 08005KT 10SM CLR 21/12 A2999 RMK AO2
KBKF - Buckley Angb/Den, Colorado, USA
Distance from station: E 16mi, 25km
Updated: 06/27/2017 8:58am
Partly cloudy
Partly cloudy
 Wind from SW
Wind: SW 15 mph , 24 km/h, Gust: 22 mph , 35 km/h
Temperature: 79°F , 26°C
Dew Point: 39°F , 4°C
Humidity: 24%
Barometer: 29.99 inHg , 1015.6 hPa
Clouds: Partly cloudy
Visibility: 10 miles , 16 km
Cloud details: Few Clouds 11000 ft
Partly cloudy 15000 ft
Partly cloudy 22000 ft
2017/06/27 14:58 KBKF 271458Z 23013G19KT 10SM FEW110 SCT150 SCT220 26/04 A2999 RMK AO2A SLP072 T02630039 57007
 
KAPA - Denver/Arapahoe, Colorado, USA
Distance from station: SE 16mi, 26km
Updated: 06/27/2017 8:53am
Partly cloudy
Partly cloudy
 Wind from WSW
Wind: WSW 17 mph , 28 km/h, Gust: 25 mph , 41 km/h
Temperature: 79°F , 26°C
Dew Point: 37°F , 3°C
Humidity: 23%
Barometer: 30.00 inHg , 1015.9 hPa
Clouds: Partly cloudy
Visibility: 10 miles , 16 km
Cloud details: Few Clouds 8000 ft
Few Clouds 15000 ft
Partly cloudy 22000 ft
2017/06/27 14:53 KAPA 271453Z 25015G22KT 10SM FEW080 FEW150 SCT220 26/03 A3000 RMK AO2 PK WND 24027/1356 SLP075 T02610033 58010
KEIK - Erie Muni, Colorado, USA
Distance from station: N 18mi, 29km
Updated: 06/27/2017 9:14am
Clear
Clear
 Wind from calm
Wind: Calm
Temperature: 68°F , 20°C
Dew Point: 55°F , 13°C
Humidity: 64%
Barometer: 29.96 inHg , 1014.6 hPa
Clouds: Clear
Visibility: 10 miles , 16 km
2017/06/27 15:14 KEIK 271514Z AUTO 00000KT 10SM CLR 20/13 A2996 RMK AO2 T01970127
 
KBDU - Boulder Muni, Colorado, USA
Distance from station: NNW 22mi, 35km
Updated: 06/27/2017 9:16am
Clear
Clear
 Wind from calm
Wind: Calm
Temperature: 68°F , 20°C
Dew Point: 54°F , 12°C
Humidity: 60%
Barometer: 29.97 inHg , 1014.9 hPa
Clouds: Clear
Visibility: 10 miles , 16 km
2017/06/27 15:16 KBDU 271516Z AUTO 00000KT 10SM CLR 20/12 A2997 RMK AO2
KDEN - Denver (dia), Colorado, USA
Distance from station: ENE 22mi, 35km
Updated: 06/27/2017 8:53am
Partly cloudy
Partly cloudy
 Wind from NW
Wind: NW 12 mph , 19 km/h
Temperature: 70°F , 21°C
Dew Point: 54°F , 12°C
Humidity: 57%
Barometer: 29.98 inHg , 1015.2 hPa
Clouds: Partly cloudy
Visibility: 10 miles , 16 km
Cloud details: Few Clouds 12000 ft
Partly cloudy 16000 ft
Partly cloudy 22000 ft
2017/06/27 14:53 KDEN 271453Z 32010KT 10SM FEW120 SCT160 SCT220 21/12 A2998 RMK AO2 SLP073 T02110117 55007
 
KFTG - Denver F. Range, Colorado, USA
Distance from station: E 26mi, 42km
Updated: 06/27/2017 9:16am
Clear
Clear
 Wind from NW
Wind: NW 10 mph , 17 km/h
Temperature: 75°F , 24°C
Dew Point: 52°F , 11°C
Humidity: 44%
Barometer: 29.99 inHg , 1015.6 hPa
Clouds: Clear
Visibility: 10 miles , 16 km
2017/06/27 15:16 KFTG 271516Z AUTO 31009KT 10SM CLR 24/11 A2999 RMK AO2
KLMO - Longmont/Vbrand, Colorado, USA
Distance from station: NNW 29mi, 47km
Updated: 06/27/2017 9:14am
Clear
Clear
 Wind from calm
Wind: Calm
Temperature: 72°F , 22°C
Dew Point: 55°F , 13°C
Humidity: 57%
Barometer: 29.97 inHg , 1014.9 hPa
Clouds: Clear
Visibility: 7 miles , 11 km
2017/06/27 15:14 KLMO 271514Z AUTO 00000KT 7SM CLR 22/13 A2997 RMK AO2 T02240126
 
K0CO - Berthoud Pass, Colorado, USA
Distance from station: W 39mi, 62km
Updated: 06/27/2017 9:16am
Partly cloudy
Partly cloudy
 Wind from W
Wind: W 21 mph , 33 km/h, Gust: 30 mph , 48 km/h
Temperature: 50°F , 10°C
Wind Chill: 43°F , 6°C
Dew Point: 36°F , 2°C
Humidity: 58%
Barometer: 30.53 inHg , 1033.9 hPa
Clouds: Partly cloudy
Visibility: 10 miles , 16 km
Cloud details: Partly cloudy 8500 ft
2017/06/27 15:16 K0CO 271516Z AUTO 26018G26KT 10SM SCT085 10/02 A3053 RMK AO2
KMNH - Monument/Elbert, Colorado, USA
Distance from station: SSE 43mi, 68km
Updated: 06/27/2017 9:13am
Clear
Clear
 Wind from W
Wind: W 21 mph , 33 km/h, Gust: 31 mph , 50 km/h
Temperature: 77°F , 25°C
Dew Point: 36°F , 2°C
Humidity: 22%
Barometer: 30.13 inHg , 1020.3 hPa
Clouds: Clear
Visibility: 10 miles , 16 km
2017/06/27 15:13 KMNH 271513Z AUTO 26018G27KT 10SM CLR 25/02 A3013 RMK AO2
 
KFNL - Ft Collins/Lovel, Colorado, USA
Distance from station: N 48mi, 78km
Updated: 06/27/2017 8:56am
Clear
Clear
 Wind from calm
Wind: Calm
Temperature: 68°F , 20°C
Dew Point: 55°F , 13°C
Humidity: 64%
Barometer: 29.96 inHg , 1014.6 hPa
Clouds: Clear
Visibility: 10 miles , 16 km
2017/06/27 14:56 KFNL 271456Z AUTO 00000KT 10SM CLR 20/13 A2996 RMK AO2 SLP079 T02000133 58013 TSNO